createdAt,value
2023-04-18T00:01:40.579Z,18.73
2023-04-18T00:04:11.411Z,18.71
2023-04-18T00:06:41.693Z,18.63
2023-04-18T00:09:12.203Z,18.68
2023-04-18T00:11:42.471Z,18.88
2023-04-18T00:14:13.245Z,19.05
2023-04-18T00:16:44.387Z,19.07
2023-04-18T00:19:15.427Z,19.14
2023-04-18T00:21:45.912Z,19.07
2023-04-18T00:24:16.381Z,19.06
2023-04-18T00:26:46.291Z,19.06
2023-04-18T00:29:17.480Z,18.86
2023-04-18T00:31:48.390Z,18.85
2023-04-18T00:34:18.962Z,18.71
2023-04-18T00:36:49.008Z,18.84
2023-04-18T00:39:19.551Z,19.01
2023-04-18T00:41:49.607Z,19.16
2023-04-18T00:44:20.179Z,19.19
2023-04-18T00:46:50.477Z,19.18
2023-04-18T00:49:21.094Z,19.20
2023-04-18T00:51:52.247Z,19.21
2023-04-18T00:54:23.570Z,19.24
2023-04-18T00:56:53.786Z,19.21
2023-04-18T00:59:24.497Z,19.24
2023-04-18T01:01:54.818Z,19.15
2023-04-18T01:04:26.059Z,19.15
2023-04-18T01:06:58.033Z,19.18
2023-04-18T01:09:29.332Z,19.16
2023-04-18T01:11:59.652Z,19.06
2023-04-18T01:14:30.082Z,18.93
2023-04-18T01:17:00.123Z,18.84
2023-04-18T01:19:30.536Z,18.85
2023-04-18T01:22:00.385Z,18.73
2023-04-18T01:24:33.006Z,18.64
2023-04-18T01:27:04.347Z,18.60
2023-04-18T01:29:38.482Z,18.69
2023-04-18T01:32:08.529Z,18.66
2023-04-18T01:34:39.382Z,18.54
2023-04-18T01:37:09.857Z,18.50
2023-04-18T01:39:39.848Z,18.52
2023-04-18T01:42:10.283Z,18.54
2023-04-18T01:44:40.355Z,18.58
2023-04-18T01:47:10.884Z,18.60
2023-04-18T01:49:43.940Z,18.61
2023-04-18T01:52:15.420Z,18.66
2023-04-18T01:54:45.423Z,18.70
2023-04-18T01:57:15.908Z,18.72
2023-04-18T01:59:45.910Z,18.78
2023-04-18T02:02:16.706Z,18.76
2023-04-18T02:04:46.733Z,18.80
2023-04-18T02:07:17.424Z,18.81
2023-04-18T02:09:48.159Z,18.82
2023-04-18T02:12:18.649Z,18.85
2023-04-18T02:14:54.583Z,18.66
2023-04-18T02:17:25.508Z,18.49
2023-04-18T02:19:57.301Z,18.46
2023-04-18T02:22:27.747Z,18.58
2023-04-18T02:24:57.736Z,18.57
2023-04-18T02:27:27.650Z,18.69
2023-04-18T02:29:59.911Z,18.74
2023-04-18T02:32:30.010Z,18.65
2023-04-18T02:35:00.487Z,18.33
2023-04-18T02:37:30.513Z,18.30
2023-04-18T02:40:00.954Z,18.27
2023-04-18T02:42:34.670Z,18.27
2023-04-18T02:45:05.337Z,18.20
2023-04-18T02:47:43.873Z,17.96
2023-04-18T02:50:22.200Z,17.77
2023-04-18T02:52:52.848Z,17.61
2023-04-18T02:55:25.538Z,17.59
2023-04-18T02:57:58.208Z,17.61
2023-04-18T03:00:56.009Z,17.57
2023-04-18T03:03:44.337Z,17.48
2023-04-18T03:06:28.434Z,17.46
2023-04-18T03:08:59.270Z,17.49
2023-04-18T03:11:30.349Z,17.40
2023-04-18T03:14:00.661Z,17.27
2023-04-18T03:16:38.461Z,17.19
2023-04-18T03:19:10.362Z,17.00
2023-04-18T03:21:40.949Z,16.92
2023-04-18T03:24:12.372Z,16.85
2023-04-18T03:26:45.242Z,16.83
2023-04-18T03:29:15.587Z,16.87
2023-04-18T03:31:48.033Z,16.95
2023-04-18T03:34:18.111Z,16.88
2023-04-18T03:36:48.722Z,16.83
2023-04-18T03:39:19.721Z,16.79
2023-04-18T03:41:50.926Z,16.73
2023-04-18T03:44:22.475Z,16.69
2023-04-18T03:46:53.175Z,16.65
2023-04-18T03:49:23.863Z,16.68
2023-04-18T03:51:53.967Z,16.77
2023-04-18T03:54:23.993Z,16.81
2023-04-18T03:56:54.698Z,16.86
2023-04-18T03:59:26.064Z,16.88
2023-04-18T04:01:58.440Z,16.90
2023-04-18T04:04:28.814Z,16.86
2023-04-18T04:06:59.700Z,16.81
2023-04-18T04:09:29.846Z,16.76
2023-04-18T04:12:01.004Z,16.75
2023-04-18T04:14:32.114Z,17.00
2023-04-18T04:17:02.941Z,17.04
2023-04-18T04:19:33.980Z,17.04
2023-04-18T04:22:17.595Z,17.02
2023-04-18T04:24:48.041Z,16.94
2023-04-18T04:27:23.889Z,16.98
2023-04-18T04:29:53.900Z,17.05
2023-04-18T04:32:25.272Z,17.06
2023-04-18T04:34:57.439Z,17.16
2023-04-18T04:37:29.602Z,17.22
2023-04-18T04:40:10.371Z,17.25
2023-04-18T04:42:55.079Z,17.05
2023-04-18T04:45:32.350Z,16.88
2023-04-18T04:48:02.892Z,16.87
2023-04-18T04:50:35.081Z,16.85
2023-04-18T04:53:07.587Z,16.93
2023-04-18T04:55:37.911Z,16.81
2023-04-18T04:58:08.485Z,16.66
2023-04-18T05:01:08.858Z,16.60
2023-04-18T05:03:39.868Z,16.47
2023-04-18T05:06:10.102Z,16.51
2023-04-18T05:08:39.909Z,16.53
2023-04-18T05:11:10.468Z,16.48
2023-04-18T05:13:40.465Z,16.49
2023-04-18T05:16:11.199Z,16.52
2023-04-18T05:18:42.518Z,16.46
2023-04-18T05:21:12.973Z,16.40
2023-04-18T05:23:42.979Z,16.02
2023-04-18T05:26:13.428Z,15.91
2023-04-18T05:28:43.932Z,16.07
2023-04-18T05:31:14.611Z,16.00
2023-04-18T05:33:44.667Z,15.99
2023-04-18T05:36:15.127Z,16.19
2023-04-18T05:38:44.977Z,16.32
2023-04-18T05:41:15.446Z,16.42
2023-04-18T05:43:51.147Z,16.56
2023-04-18T05:46:32.807Z,16.70
2023-04-18T05:49:03.263Z,16.80
2023-04-18T05:51:33.753Z,16.86
2023-04-18T05:54:03.865Z,16.96
2023-04-18T05:56:34.322Z,17.04
2023-04-18T05:59:04.346Z,17.16
2023-04-18T06:01:34.904Z,17.31
2023-04-18T06:04:05.069Z,17.31
2023-04-18T06:06:36.456Z,17.23
2023-04-18T06:09:07.297Z,17.23
2023-04-18T06:11:37.807Z,17.13
2023-04-18T06:14:08.953Z,17.12
2023-04-18T06:16:39.627Z,17.08
2023-04-18T06:19:09.629Z,17.10
2023-04-18T06:21:43.099Z,17.08
2023-04-18T06:24:13.356Z,17.12
2023-04-18T06:26:44.185Z,17.10
2023-04-18T06:29:14.666Z,17.13
2023-04-18T06:31:47.291Z,17.12
2023-04-18T06:34:17.975Z,17.17
2023-04-18T06:36:48.418Z,17.10
2023-04-18T06:39:18.258Z,17.14
2023-04-18T06:41:50.531Z,17.14
2023-04-18T06:44:30.359Z,17.23
2023-04-18T06:47:01.154Z,17.32
2023-04-18T06:49:31.375Z,17.25
2023-04-18T06:52:01.876Z,17.12
2023-04-18T06:54:31.927Z,17.26
2023-04-18T06:57:04.617Z,17.37
2023-04-18T06:59:34.660Z,17.41
2023-04-18T07:02:05.228Z,17.51
2023-04-18T07:04:35.619Z,17.47
2023-04-18T07:07:06.516Z,17.44
2023-04-18T07:09:36.525Z,17.45
2023-04-18T07:12:08.031Z,17.33
2023-04-18T07:14:38.819Z,17.43
2023-04-18T07:17:09.562Z,17.62
2023-04-18T07:19:39.657Z,17.49
2023-04-18T07:22:10.094Z,17.57
2023-04-18T07:24:41.094Z,17.68
2023-04-18T07:27:11.609Z,17.80
2023-04-18T07:29:41.617Z,17.80
2023-04-18T07:32:12.176Z,17.73
2023-04-18T07:34:42.563Z,17.73
2023-04-18T07:37:15.084Z,17.73
2023-04-18T07:39:45.229Z,17.71
2023-04-18T07:42:15.671Z,17.65
2023-04-18T07:44:45.973Z,17.64
2023-04-18T07:47:17.220Z,17.73
2023-04-18T07:49:47.607Z,17.70
2023-04-18T07:52:18.114Z,17.68
2023-04-18T07:54:48.532Z,17.68
2023-04-18T07:57:19.080Z,17.75
2023-04-18T07:59:49.131Z,17.70
2023-04-18T08:02:19.810Z,17.77
2023-04-18T08:04:51.240Z,17.79
2023-04-18T08:07:21.871Z,17.81
2023-04-18T08:09:51.921Z,17.80
2023-04-18T08:12:22.404Z,17.73
2023-04-18T08:14:52.402Z,17.80
2023-04-18T08:17:23.992Z,17.76
2023-04-18T08:19:54.017Z,17.78
2023-04-18T08:22:24.480Z,17.83
2023-04-18T08:25:04.275Z,17.77
2023-04-18T08:27:35.694Z,17.73
2023-04-18T08:30:06.301Z,17.67
2023-04-18T08:32:38.340Z,17.60
2023-04-18T08:35:08.756Z,17.73
2023-04-18T08:37:39.398Z,17.80
2023-04-18T08:40:09.913Z,17.85
2023-04-18T08:42:40.880Z,17.65
2023-04-18T08:45:11.185Z,17.58
2023-04-18T08:47:42.899Z,17.67
2023-04-18T08:50:13.775Z,17.74
2023-04-18T08:52:51.201Z,17.81
2023-04-18T08:55:23.437Z,17.75
2023-04-18T08:57:56.764Z,17.44
2023-04-18T09:00:27.073Z,17.44
2023-04-18T09:02:58.249Z,17.39
2023-04-18T09:05:28.812Z,17.35
2023-04-18T09:07:59.301Z,17.51
2023-04-18T09:10:34.493Z,17.48
2023-04-18T09:13:05.590Z,17.43
2023-04-18T09:15:36.392Z,17.55
2023-04-18T09:18:12.012Z,17.70
2023-04-18T09:20:43.271Z,17.68
2023-04-18T09:23:18.152Z,17.71
2023-04-18T09:25:50.513Z,17.75
2023-04-18T09:28:29.052Z,17.79
2023-04-18T09:31:14.345Z,17.65
2023-04-18T09:33:55.642Z,17.86
2023-04-18T09:36:30.299Z,17.78
2023-04-18T09:39:00.966Z,17.88
2023-04-18T09:41:32.461Z,17.91
2023-04-18T09:44:15.273Z,17.88
2023-04-18T09:46:47.721Z,17.92
2023-04-18T09:49:18.734Z,17.94
2023-04-18T09:51:51.933Z,17.84
2023-04-18T09:54:25.694Z,17.89
2023-04-18T09:56:57.497Z,17.98
2023-04-18T09:59:43.441Z,17.96
2023-04-18T10:02:20.956Z,17.63
2023-04-18T10:04:52.925Z,17.88
2023-04-18T10:07:23.564Z,18.06
2023-04-18T10:09:54.667Z,18.10
2023-04-18T10:12:25.529Z,18.05
2023-04-18T10:14:57.448Z,17.97
2023-04-18T10:17:29.766Z,18.04
2023-04-18T10:20:13.790Z,17.90
2023-04-18T10:22:43.800Z,17.92
2023-04-18T10:25:14.249Z,17.87
2023-04-18T10:27:50.486Z,17.85
2023-04-18T10:30:20.913Z,18.16
2023-04-18T10:32:50.954Z,18.22
2023-04-18T10:35:23.082Z,18.29
2023-04-18T10:37:53.445Z,18.37
2023-04-18T10:40:36.607Z,18.21
2023-04-18T10:43:07.973Z,18.10
2023-04-18T10:45:38.418Z,18.33
2023-04-18T10:48:30.581Z,18.47
2023-04-18T10:51:17.105Z,18.37
2023-04-18T10:53:59.321Z,18.22
2023-04-18T10:56:30.788Z,18.20
2023-04-18T10:59:04.201Z,18.25
2023-04-18T11:04:18.398Z,18.36
2023-04-18T11:06:56.181Z,18.42
2023-04-18T11:09:26.950Z,18.53
2023-04-18T11:12:07.727Z,18.70
2023-04-18T11:14:44.908Z,18.65
2023-04-18T11:17:30.000Z,18.86
2023-04-18T11:20:12.140Z,19.06
2023-04-18T11:22:54.831Z,19.10
2023-04-18T11:25:35.538Z,19.26
2023-04-18T11:28:06.444Z,19.38
2023-04-18T11:30:43.636Z,19.55
2023-04-18T11:33:15.220Z,19.54
2023-04-18T11:35:46.932Z,19.56
2023-04-18T11:38:18.121Z,19.59
2023-04-18T11:40:52.344Z,19.69
2023-04-18T11:43:25.411Z,19.95
2023-04-18T11:46:00.510Z,20.01
2023-04-18T11:48:46.659Z,20.18
2023-04-18T11:51:36.988Z,20.15
2023-04-18T11:54:07.783Z,20.18
2023-04-18T11:56:37.772Z,20.19
2023-04-18T11:59:11.314Z,20.21
2023-04-18T12:01:41.329Z,20.21
2023-04-18T12:04:11.467Z,20.41
2023-04-18T12:07:03.723Z,20.41
2023-04-18T12:09:40.137Z,20.61
2023-04-18T12:12:10.569Z,20.63
2023-04-18T12:14:40.587Z,21.27
2023-04-18T12:17:10.975Z,21.78
2023-04-18T12:19:47.962Z,21.84
2023-04-18T12:22:20.123Z,22.02
2023-04-18T12:25:11.092Z,22.38
2023-04-18T12:28:02.393Z,22.82
2023-04-18T12:30:37.461Z,23.16
2023-04-18T12:33:10.308Z,23.16
2023-04-18T12:35:40.370Z,24.06
2023-04-18T12:38:10.164Z,25.28
2023-04-18T12:40:41.969Z,26.59
2023-04-18T12:43:12.317Z,26.49
2023-04-18T12:45:42.821Z,26.37
2023-04-18T12:48:16.037Z,26.23
2023-04-18T12:50:46.777Z,25.75
2023-04-18T12:53:16.817Z,25.51
2023-04-18T12:55:47.720Z,25.44
2023-04-18T12:58:19.693Z,25.09
2023-04-18T13:00:50.193Z,24.98
2023-04-18T13:03:20.420Z,25.48
2023-04-18T13:05:51.102Z,26.80
2023-04-18T13:08:21.168Z,27.98
2023-04-18T13:10:51.737Z,28.21
2023-04-18T13:13:22.701Z,28.58
2023-04-18T13:15:53.886Z,29.29
2023-04-18T13:18:23.873Z,29.68
2023-04-18T13:20:54.999Z,29.60
2023-04-18T13:23:24.990Z,29.05
2023-04-18T13:25:55.454Z,29.46
2023-04-18T13:28:25.423Z,30.34
2023-04-18T13:30:55.219Z,31.01
2023-04-18T13:33:25.623Z,31.22
2023-04-18T13:35:55.457Z,31.29
2023-04-18T13:38:26.347Z,29.11
2023-04-18T13:41:10.897Z,28.15
2023-04-18T13:43:42.934Z,27.70
2023-04-18T13:46:13.738Z,27.48
2023-04-18T13:48:44.132Z,27.25
2023-04-18T13:51:14.339Z,27.22
2023-04-18T13:53:44.823Z,28.27
2023-04-18T13:56:15.004Z,29.64
2023-04-18T13:58:45.438Z,29.63
2023-04-18T14:01:17.394Z,30.67
2023-04-18T14:03:48.746Z,30.43
2023-04-18T14:06:18.851Z,30.79
2023-04-18T14:08:52.259Z,29.89
2023-04-18T14:11:22.674Z,28.46
2023-04-18T14:13:53.099Z,27.57
2023-04-18T14:16:23.651Z,27.39
2023-04-18T14:18:55.032Z,27.52
2023-04-18T14:21:25.284Z,28.55
2023-04-18T14:23:58.893Z,29.73
2023-04-18T14:26:31.481Z,30.25
2023-04-18T14:29:02.119Z,30.33
2023-04-18T14:31:32.254Z,30.05
2023-04-18T14:34:02.841Z,30.05
2023-04-18T14:36:33.837Z,29.87
2023-04-18T14:39:04.750Z,30.71
2023-04-18T14:41:34.920Z,30.92
2023-04-18T14:44:05.561Z,31.45
2023-04-18T14:46:35.606Z,30.80
2023-04-18T14:49:06.001Z,30.75
2023-04-18T14:51:36.029Z,30.62
2023-04-18T14:54:06.701Z,31.78
2023-04-18T14:56:37.170Z,31.22
2023-04-18T14:59:07.702Z,31.40
2023-04-18T15:01:37.770Z,30.43
2023-04-18T15:04:08.963Z,30.07
2023-04-18T15:06:39.222Z,31.53
2023-04-18T15:09:09.600Z,32.10
2023-04-18T15:11:39.858Z,32.05
2023-04-18T15:14:10.873Z,31.74
2023-04-18T15:16:41.940Z,30.98
2023-04-18T15:19:12.374Z,30.51
2023-04-18T15:21:42.425Z,32.02
2023-04-18T15:24:13.213Z,31.30
2023-04-18T15:26:44.436Z,30.55
2023-04-18T15:29:14.895Z,31.27
2023-04-18T15:31:44.990Z,31.77
2023-04-18T15:34:15.674Z,31.75
2023-04-18T15:36:45.961Z,31.04
2023-04-18T15:39:15.958Z,30.56
2023-04-18T15:41:48.331Z,31.38
2023-04-18T15:44:17.829Z,31.60
2023-04-18T15:46:47.606Z,31.75
2023-04-18T15:49:18.323Z,32.26
2023-04-18T15:51:49.026Z,32.24
2023-04-18T15:54:18.783Z,33.00
2023-04-18T15:56:49.268Z,33.57
2023-04-18T15:59:19.255Z,32.99
2023-04-18T16:01:49.688Z,32.47
2023-04-18T16:04:19.799Z,32.10
2023-04-18T16:06:50.223Z,32.77
2023-04-18T16:09:20.270Z,33.87
2023-04-18T16:11:50.735Z,33.41
2023-04-18T16:14:21.514Z,32.23
2023-04-18T16:16:54.844Z,32.57
2023-04-18T16:19:24.843Z,32.03
2023-04-18T16:21:55.224Z,32.61
2023-04-18T16:24:26.690Z,31.86
2023-04-18T16:26:57.866Z,31.76
2023-04-18T16:29:27.918Z,31.67
2023-04-18T16:31:58.438Z,32.28
2023-04-18T16:34:29.286Z,31.77
2023-04-18T16:36:59.710Z,31.59
2023-04-18T16:39:31.982Z,31.83
2023-04-18T16:42:02.570Z,32.62
2023-04-18T16:44:33.718Z,32.15
2023-04-18T16:47:06.097Z,32.34
2023-04-18T16:49:36.857Z,32.12
2023-04-18T16:52:07.338Z,32.12
2023-04-18T16:54:37.342Z,32.41
2023-04-18T16:57:07.777Z,32.32
2023-04-18T16:59:37.817Z,32.64
2023-04-18T17:02:09.333Z,33.17
2023-04-18T17:04:39.707Z,32.94
2023-04-18T17:07:10.268Z,32.32
2023-04-18T17:09:40.225Z,31.97
2023-04-18T17:12:10.817Z,31.51
2023-04-18T17:14:40.887Z,31.82
2023-04-18T17:17:11.822Z,31.56
2023-04-18T17:19:42.033Z,31.62
2023-04-18T17:22:13.192Z,31.30
2023-04-18T17:24:43.238Z,30.97
2023-04-18T17:27:13.983Z,31.60
2023-04-18T17:29:44.027Z,32.78
2023-04-18T17:32:14.444Z,33.74
2023-04-18T17:34:44.434Z,32.82
2023-04-18T17:37:15.984Z,32.92
2023-04-18T17:39:45.997Z,31.92
2023-04-18T17:42:16.462Z,31.65
2023-04-18T17:44:46.547Z,31.41
2023-04-18T17:47:17.336Z,31.05
2023-04-18T17:49:47.485Z,29.35
2023-04-18T17:52:17.986Z,29.72
2023-04-18T17:54:47.979Z,29.50
2023-04-18T17:57:18.431Z,29.15
2023-04-18T17:59:48.449Z,30.07
2023-04-18T18:02:18.991Z,30.42
2023-04-18T18:04:49.031Z,30.40
2023-04-18T18:07:19.604Z,30.95
2023-04-18T18:09:49.624Z,30.73
2023-04-18T18:12:20.205Z,30.76
2023-04-18T18:14:50.313Z,30.45
2023-04-18T18:17:20.843Z,30.21
2023-04-18T18:19:50.981Z,30.27
2023-04-18T18:22:22.525Z,30.46
2023-04-18T18:24:52.872Z,30.62
2023-04-18T18:27:23.352Z,31.21
2023-04-18T18:29:53.870Z,31.48
2023-04-18T18:32:24.579Z,31.07
2023-04-18T18:34:54.764Z,30.35
2023-04-18T18:37:27.097Z,30.01
2023-04-18T18:40:01.023Z,30.26
2023-04-18T18:42:31.896Z,30.18
2023-04-18T18:45:02.686Z,29.78
2023-04-18T18:47:33.278Z,29.77
2023-04-18T18:50:03.316Z,30.71
2023-04-18T18:52:35.294Z,31.38
2023-04-18T18:55:05.689Z,32.15
2023-04-18T18:57:36.184Z,32.44
2023-04-18T19:00:13.089Z,32.67
2023-04-18T19:02:43.651Z,31.80
2023-04-18T19:05:13.977Z,31.83
2023-04-18T19:07:44.564Z,31.14
2023-04-18T19:10:14.642Z,30.18
2023-04-18T19:12:45.391Z,29.71
2023-04-18T19:15:16.144Z,29.39
2023-04-18T19:17:47.406Z,28.56
2023-04-18T19:20:17.574Z,27.90
2023-04-18T19:22:48.068Z,27.77
2023-04-18T19:25:18.113Z,28.17
2023-04-18T19:27:48.632Z,28.45
2023-04-18T19:30:18.746Z,28.41
2023-04-18T19:32:49.242Z,28.03
2023-04-18T19:35:19.318Z,28.08
2023-04-18T19:37:49.754Z,27.72
2023-04-18T19:40:19.928Z,27.47
2023-04-18T19:42:50.394Z,27.36
2023-04-18T19:45:20.476Z,27.08
2023-04-18T19:47:51.144Z,26.97
2023-04-18T19:50:21.319Z,26.96
2023-04-18T19:52:51.926Z,26.82
2023-04-18T19:55:22.216Z,26.59
2023-04-18T19:57:57.019Z,26.58
2023-04-18T20:00:27.238Z,26.47
2023-04-18T20:02:59.909Z,26.21
2023-04-18T20:05:30.106Z,26.11
2023-04-18T20:08:00.599Z,25.63
2023-04-18T20:10:30.990Z,25.83
2023-04-18T20:13:01.702Z,25.55
2023-04-18T20:15:31.706Z,25.48
2023-04-18T20:18:02.278Z,25.22
2023-04-18T20:20:32.399Z,25.01
2023-04-18T20:23:03.612Z,24.77
2023-04-18T20:25:35.137Z,24.41
2023-04-18T20:28:05.715Z,24.37
2023-04-18T20:30:37.318Z,24.35
2023-04-18T20:33:07.933Z,24.02
2023-04-18T20:35:37.972Z,23.90
2023-04-18T20:38:10.049Z,23.77
2023-04-18T20:40:40.834Z,23.71
2023-04-18T20:43:11.280Z,23.65
2023-04-18T20:45:43.927Z,23.43
2023-04-18T20:48:14.391Z,23.32
2023-04-18T20:50:45.690Z,23.07
2023-04-18T20:53:16.226Z,22.76
2023-04-18T20:55:48.317Z,22.33
2023-04-18T20:58:18.941Z,22.00
2023-04-18T21:00:49.983Z,21.71
2023-04-18T21:03:20.567Z,21.37
2023-04-18T21:05:50.751Z,21.17
2023-04-18T21:08:21.366Z,20.93
2023-04-18T21:10:51.365Z,20.71
2023-04-18T21:13:22.227Z,20.51
2023-04-18T21:15:53.052Z,20.41
2023-04-18T21:18:23.471Z,20.27
2023-04-18T21:20:56.310Z,20.17
2023-04-18T21:23:26.792Z,20.11
2023-04-18T21:25:56.812Z,20.05
2023-04-18T21:28:27.368Z,19.97
2023-04-18T21:30:57.395Z,19.84
2023-04-18T21:33:28.016Z,19.67
2023-04-18T21:35:58.397Z,19.52
2023-04-18T21:38:28.820Z,19.35
2023-04-18T21:40:59.774Z,19.24
2023-04-18T21:43:30.202Z,19.21
2023-04-18T21:46:00.296Z,19.06
2023-04-18T21:48:30.805Z,18.98
2023-04-18T21:51:00.856Z,18.93
2023-04-18T21:53:31.790Z,18.79
2023-04-18T21:56:02.038Z,18.68
2023-04-18T21:58:32.875Z,18.57
2023-04-18T22:01:03.131Z,18.48
2023-04-18T22:03:35.288Z,18.33
2023-04-18T22:06:05.816Z,18.22
2023-04-18T22:08:36.420Z,18.16
2023-04-18T22:11:06.569Z,18.08
2023-04-18T22:13:37.040Z,17.96
2023-04-18T22:16:09.294Z,17.85
2023-04-18T22:18:40.351Z,17.71
2023-04-18T22:21:10.717Z,17.57
2023-04-18T22:23:41.123Z,17.44
2023-04-18T22:26:10.954Z,17.47
2023-04-18T22:28:41.466Z,17.39
2023-04-18T22:31:11.459Z,17.29
2023-04-18T22:33:41.938Z,17.26
2023-04-18T22:36:12.018Z,17.15
2023-04-18T22:38:42.546Z,17.13
2023-04-18T22:41:12.595Z,17.11
2023-04-18T22:43:43.212Z,17.03
2023-04-18T22:46:13.099Z,16.91
2023-04-18T22:48:43.589Z,16.87
2023-04-18T22:51:15.371Z,16.77
2023-04-18T22:53:45.919Z,16.73
2023-04-18T22:56:15.973Z,16.77
2023-04-18T22:58:46.558Z,16.88
2023-04-18T23:01:16.706Z,16.93
2023-04-18T23:03:47.690Z,16.96
2023-04-18T23:06:18.225Z,17.00
2023-04-18T23:08:48.879Z,16.98
2023-04-18T23:11:18.955Z,16.97
2023-04-18T23:13:49.663Z,16.94
2023-04-18T23:16:19.696Z,16.87
2023-04-18T23:18:50.208Z,16.91
2023-04-18T23:21:20.039Z,16.97
2023-04-18T23:23:50.623Z,16.85
2023-04-18T23:26:20.782Z,16.77
2023-04-18T23:28:52.065Z,16.83
2023-04-18T23:31:22.260Z,16.96
2023-04-18T23:33:52.703Z,17.01
2023-04-18T23:36:22.641Z,17.00
2023-04-18T23:38:53.647Z,17.04
2023-04-18T23:41:23.668Z,16.97
2023-04-18T23:43:54.097Z,16.87
2023-04-18T23:46:24.342Z,16.78
2023-04-18T23:48:54.851Z,16.75
2023-04-18T23:51:24.859Z,16.68
2023-04-18T23:53:58.128Z,16.61
2023-04-18T23:56:28.573Z,16.53
2023-04-18T23:58:59.223Z,16.47
